createdAt,value
2023-05-14T00:00:39.936Z,9.80
2023-05-14T00:03:06.536Z,9.83
2023-05-14T00:05:33.083Z,9.96
2023-05-14T00:07:59.341Z,9.80
2023-05-14T00:10:27.360Z,9.93
2023-05-14T00:12:53.901Z,9.79
2023-05-14T00:15:20.513Z,9.76
2023-05-14T00:17:46.839Z,9.66
2023-05-14T00:20:13.336Z,9.62
2023-05-14T00:22:40.283Z,9.72
2023-05-14T00:25:07.902Z,9.59
2023-05-14T00:27:35.240Z,9.59
2023-05-14T00:30:01.570Z,9.47
2023-05-14T00:32:27.917Z,9.41
2023-05-14T00:34:54.207Z,9.49
2023-05-14T00:37:20.579Z,9.57
2023-05-14T00:39:46.910Z,9.50
2023-05-14T00:42:13.239Z,9.23
2023-05-14T00:44:39.542Z,9.23
2023-05-14T00:47:06.179Z,9.20
2023-05-14T00:49:32.800Z,9.07
2023-05-14T00:52:00.350Z,9.12
2023-05-14T00:54:28.034Z,9.12
2023-05-14T00:56:54.981Z,9.20
2023-05-14T00:59:21.251Z,9.20
2023-05-14T01:01:47.730Z,9.24
2023-05-14T01:04:14.254Z,9.19
2023-05-14T01:07:03.729Z,9.15
2023-05-14T01:09:36.020Z,9.11
2023-05-14T01:12:21.159Z,9.03
2023-05-14T01:15:10.858Z,9.06
2023-05-14T01:17:48.471Z,9.02
2023-05-14T01:20:15.555Z,8.96
2023-05-14T01:22:42.489Z,9.00
2023-05-14T01:25:09.202Z,8.93
2023-05-14T01:27:38.483Z,8.90
2023-05-14T01:30:21.932Z,9.11
2023-05-14T01:32:53.322Z,9.16
2023-05-14T01:35:24.907Z,9.12
2023-05-14T01:37:53.297Z,9.08
2023-05-14T01:40:19.855Z,9.06
2023-05-14T01:42:46.419Z,9.06
2023-05-14T01:45:12.766Z,9.04
2023-05-14T01:47:39.128Z,9.00
2023-05-14T01:50:05.913Z,8.92
2023-05-14T01:52:32.183Z,8.96
2023-05-14T01:54:59.840Z,8.94
2023-05-14T01:57:26.235Z,8.83
2023-05-14T01:59:52.601Z,8.67
2023-05-14T02:02:18.924Z,8.69
2023-05-14T02:04:45.360Z,8.79
2023-05-14T02:07:11.704Z,8.58
2023-05-14T02:09:38.107Z,8.40
2023-05-14T02:12:04.600Z,8.35
2023-05-14T02:14:31.307Z,8.41
2023-05-14T02:16:57.847Z,8.56
2023-05-14T02:19:24.410Z,8.52
2023-05-14T02:21:50.685Z,8.73
2023-05-14T02:24:17.015Z,8.54
2023-05-14T02:26:43.365Z,8.71
2023-05-14T02:29:09.674Z,8.61
2023-05-14T02:31:36.000Z,8.49
2023-05-14T02:34:03.000Z,8.49
2023-05-14T02:36:29.310Z,8.45
2023-05-14T02:38:55.594Z,8.23
2023-05-14T02:41:21.882Z,8.13
2023-05-14T02:43:48.317Z,8.04
2023-05-14T02:46:14.684Z,8.05
2023-05-14T02:48:41.075Z,8.17
2023-05-14T02:51:08.015Z,8.17
2023-05-14T02:53:34.300Z,8.10
2023-05-14T02:56:00.763Z,8.10
2023-05-14T02:58:28.419Z,8.04
2023-05-14T03:00:55.226Z,7.84
2023-05-14T03:03:22.071Z,7.87
2023-05-14T03:05:48.954Z,7.76
2023-05-14T03:08:15.400Z,7.74
2023-05-14T03:10:41.747Z,7.63
2023-05-14T03:13:08.108Z,7.66
2023-05-14T03:15:34.382Z,7.74
2023-05-14T03:18:00.689Z,7.61
2023-05-14T03:20:27.180Z,7.55
2023-05-14T03:22:54.305Z,7.58
2023-05-14T03:25:20.600Z,7.53
2023-05-14T03:27:47.109Z,7.60
2023-05-14T03:30:13.667Z,7.59
2023-05-14T03:32:40.675Z,7.64
2023-05-14T03:35:07.840Z,7.57
2023-05-14T03:37:34.153Z,7.57
2023-05-14T03:40:00.493Z,7.57
2023-05-14T03:42:27.035Z,7.63
2023-05-14T03:44:53.328Z,7.64
2023-05-14T03:47:19.617Z,7.69
2023-05-14T03:49:46.219Z,7.75
2023-05-14T03:52:12.540Z,7.80
2023-05-14T03:54:41.003Z,7.89
2023-05-14T03:57:07.294Z,7.86
2023-05-14T03:59:33.691Z,7.91
2023-05-14T04:02:00.104Z,7.79
2023-05-14T04:04:26.482Z,7.74
2023-05-14T04:06:52.878Z,7.84
2023-05-14T04:09:19.164Z,7.86
2023-05-14T04:11:46.104Z,7.97
2023-05-14T04:14:12.781Z,8.14
2023-05-14T04:16:39.118Z,8.23
2023-05-14T04:19:06.232Z,8.20
2023-05-14T04:21:32.657Z,8.13
2023-05-14T04:23:58.952Z,8.08
2023-05-14T04:26:25.372Z,8.26
2023-05-14T04:28:52.015Z,8.20
2023-05-14T04:31:18.299Z,8.42
2023-05-14T04:33:44.614Z,8.59
2023-05-14T04:36:10.886Z,8.68
2023-05-14T04:38:37.132Z,8.79
2023-05-14T04:41:03.544Z,8.93
2023-05-14T04:43:29.871Z,8.92
2023-05-14T04:45:56.192Z,8.88
2023-05-14T04:48:22.541Z,8.88
2023-05-14T04:50:48.833Z,8.91
2023-05-14T04:53:15.387Z,8.96
2023-05-14T04:55:42.035Z,9.21
2023-05-14T04:58:08.333Z,9.47
2023-05-14T05:00:34.729Z,9.65
2023-05-14T05:03:01.261Z,9.87
2023-05-14T05:05:27.728Z,10.30
2023-05-14T05:07:54.259Z,10.60
2023-05-14T05:10:20.727Z,10.94
2023-05-14T05:12:47.113Z,11.14
2023-05-14T05:15:13.457Z,11.44
2023-05-14T05:17:39.785Z,11.53
2023-05-14T05:20:09.610Z,11.79
2023-05-14T05:22:36.601Z,12.04
2023-05-14T05:25:06.095Z,12.26
2023-05-14T05:27:35.697Z,12.56
2023-05-14T05:30:02.239Z,12.74
2023-05-14T05:32:28.571Z,12.86
2023-05-14T05:34:55.037Z,12.94
2023-05-14T05:37:21.327Z,13.09
2023-05-14T05:39:48.247Z,13.31
2023-05-14T05:42:14.737Z,13.38
2023-05-14T05:44:41.240Z,13.60
2023-05-14T05:47:07.525Z,13.82
2023-05-14T05:49:33.888Z,14.11
2023-05-14T05:52:00.202Z,14.27
2023-05-14T05:54:27.064Z,14.44
2023-05-14T05:56:53.328Z,14.49
2023-05-14T05:59:19.607Z,14.48
2023-05-14T06:01:45.874Z,14.80
2023-05-14T06:04:12.224Z,14.92
2023-05-14T06:06:38.501Z,15.12
2023-05-14T06:09:06.679Z,15.25
2023-05-14T06:11:32.968Z,15.46
2023-05-14T06:13:59.244Z,15.76
2023-05-14T06:16:25.672Z,15.82
2023-05-14T06:18:55.746Z,15.91
2023-05-14T06:21:22.097Z,15.90
2023-05-14T06:23:48.466Z,16.02
2023-05-14T06:26:14.812Z,16.27
2023-05-14T06:28:41.118Z,16.51
2023-05-14T06:31:07.403Z,16.56
2023-05-14T06:33:33.715Z,16.46
2023-05-14T06:36:01.028Z,16.76
2023-05-14T06:38:27.416Z,16.96
2023-05-14T06:40:53.686Z,17.16
2023-05-14T06:43:19.964Z,16.89
2023-05-14T06:45:50.104Z,17.06
2023-05-14T06:48:18.689Z,16.87
2023-05-14T06:50:46.264Z,17.20
2023-05-14T06:53:12.850Z,17.39
2023-05-14T06:55:39.381Z,17.17
2023-05-14T06:58:09.385Z,17.28
2023-05-14T07:00:35.734Z,17.44
2023-05-14T07:03:02.038Z,17.64
2023-05-14T07:05:28.434Z,17.99
2023-05-14T07:07:55.126Z,17.98
2023-05-14T07:10:22.001Z,18.10
2023-05-14T07:12:49.130Z,17.93
2023-05-14T07:15:16.573Z,18.18
2023-05-14T07:17:42.992Z,18.23
2023-05-14T07:20:09.926Z,18.09
2023-05-14T07:22:36.248Z,18.42
2023-05-14T07:25:03.031Z,18.29
2023-05-14T07:27:29.403Z,18.44
2023-05-14T07:29:55.692Z,18.53
2023-05-14T07:32:22.072Z,18.44
2023-05-14T07:34:48.731Z,18.52
2023-05-14T07:37:15.184Z,18.35
2023-05-14T07:39:41.673Z,18.42
2023-05-14T07:42:08.114Z,18.67
2023-05-14T07:44:34.423Z,18.72
2023-05-14T07:47:01.520Z,18.92
2023-05-14T07:49:27.836Z,19.03
2023-05-14T07:51:54.194Z,19.19
2023-05-14T07:54:20.579Z,19.31
2023-05-14T07:56:46.857Z,19.42
2023-05-14T07:59:13.456Z,19.53
2023-05-14T08:01:39.779Z,19.43
2023-05-14T08:04:06.234Z,19.31
2023-05-14T08:06:33.132Z,19.19
2023-05-14T08:08:59.539Z,19.10
2023-05-14T08:11:26.186Z,19.23
2023-05-14T08:13:52.713Z,19.36
2023-05-14T08:16:19.127Z,19.46
2023-05-14T08:18:45.497Z,19.54
2023-05-14T08:21:11.811Z,19.80
2023-05-14T08:23:38.118Z,19.97
2023-05-14T08:26:05.326Z,19.89
2023-05-14T08:28:31.790Z,19.90
2023-05-14T08:30:58.181Z,19.82
2023-05-14T08:33:24.565Z,20.04
2023-05-14T08:35:54.066Z,19.97
2023-05-14T08:38:20.535Z,19.91
2023-05-14T08:40:58.196Z,20.01
2023-05-14T08:43:34.905Z,19.97
2023-05-14T08:46:05.215Z,19.83
2023-05-14T08:48:34.805Z,20.07
2023-05-14T08:51:01.887Z,19.77
2023-05-14T08:53:28.414Z,19.99
2023-05-14T08:55:54.785Z,20.18
2023-05-14T08:58:21.198Z,20.37
2023-05-14T09:00:47.671Z,20.49
2023-05-14T09:03:14.869Z,20.44
2023-05-14T09:05:41.481Z,20.61
2023-05-14T09:08:07.792Z,20.41
2023-05-14T09:10:34.108Z,20.30
2023-05-14T09:13:00.502Z,20.47
2023-05-14T09:15:29.028Z,20.59
2023-05-14T09:17:56.586Z,20.51
2023-05-14T09:20:24.357Z,20.65
2023-05-14T09:22:54.411Z,20.89
2023-05-14T09:25:26.963Z,20.99
2023-05-14T09:27:56.107Z,21.36
2023-05-14T09:30:24.753Z,21.30
2023-05-14T09:32:53.861Z,21.15
2023-05-14T09:35:23.954Z,21.35
2023-05-14T09:37:52.712Z,21.14
2023-05-14T09:40:20.964Z,21.05
2023-05-14T09:42:50.783Z,20.94
2023-05-14T09:45:17.322Z,20.94
2023-05-14T09:47:44.958Z,20.77
2023-05-14T09:50:11.716Z,21.03
2023-05-14T09:52:38.370Z,21.10
2023-05-14T09:55:05.505Z,21.06
2023-05-14T09:57:31.886Z,21.02
2023-05-14T09:59:58.260Z,20.68
2023-05-14T10:02:29.346Z,20.39
2023-05-14T10:05:00.724Z,20.60
2023-05-14T10:07:31.422Z,20.91
2023-05-14T10:10:01.653Z,20.72
2023-05-14T10:12:36.667Z,20.32
2023-05-14T10:15:19.827Z,20.40
2023-05-14T10:17:52.738Z,20.53
2023-05-14T10:20:20.692Z,20.35
2023-05-14T10:22:47.152Z,20.58
2023-05-14T10:25:13.870Z,20.74
2023-05-14T10:27:42.214Z,20.59
2023-05-14T10:30:12.585Z,20.48
2023-05-14T10:32:41.628Z,20.43
2023-05-14T10:35:22.661Z,20.25
2023-05-14T10:37:51.317Z,20.34
2023-05-14T10:40:19.147Z,20.42
2023-05-14T10:42:46.558Z,20.62
2023-05-14T10:45:14.615Z,20.99
2023-05-14T10:47:48.521Z,20.80
2023-05-14T10:50:15.875Z,20.49
2023-05-14T10:52:43.504Z,20.35
2023-05-14T10:55:13.878Z,20.36
2023-05-14T10:57:43.251Z,20.56
2023-05-14T11:00:12.723Z,20.44
2023-05-14T11:02:44.260Z,20.40
2023-05-14T11:05:17.297Z,20.33
2023-05-14T11:07:46.575Z,20.10
2023-05-14T11:10:17.979Z,20.18
2023-05-14T11:12:49.521Z,20.12
2023-05-14T11:15:18.170Z,19.98
2023-05-14T11:17:45.951Z,20.28
2023-05-14T11:20:13.486Z,20.32
2023-05-14T11:22:41.668Z,20.58
2023-05-14T11:25:09.486Z,20.59
2023-05-14T11:27:37.988Z,20.77
2023-05-14T11:30:05.140Z,20.61
2023-05-14T11:32:32.975Z,20.44
2023-05-14T11:35:00.877Z,20.57
2023-05-14T11:37:27.398Z,20.81
2023-05-14T11:39:55.513Z,20.67
2023-05-14T11:42:22.379Z,20.54
2023-05-14T11:44:51.404Z,20.64
2023-05-14T11:47:19.876Z,20.47
2023-05-14T11:49:46.588Z,20.36
2023-05-14T11:52:15.041Z,20.24
2023-05-14T11:54:43.732Z,20.51
2023-05-14T11:57:13.031Z,20.57
2023-05-14T11:59:39.979Z,20.65
2023-05-14T12:02:10.575Z,20.53
2023-05-14T12:04:37.179Z,20.56
2023-05-14T12:07:12.364Z,20.35
2023-05-14T12:09:43.566Z,20.22
2023-05-14T12:12:12.812Z,20.08
2023-05-14T12:14:45.221Z,19.81
2023-05-14T12:17:16.659Z,19.63
2023-05-14T12:19:45.063Z,19.55
2023-05-14T12:22:14.054Z,19.67
2023-05-14T12:24:40.481Z,19.64
2023-05-14T12:27:08.133Z,19.61
2023-05-14T12:29:40.973Z,19.51
2023-05-14T12:32:11.129Z,19.26
2023-05-14T12:34:38.410Z,19.11
2023-05-14T12:37:05.998Z,19.07
2023-05-14T12:39:34.101Z,19.15
2023-05-14T12:42:01.268Z,19.40
2023-05-14T12:44:28.053Z,19.49
2023-05-14T12:46:54.975Z,19.63
2023-05-14T12:49:21.316Z,19.79
2023-05-14T12:51:47.588Z,19.93
2023-05-14T12:54:15.826Z,19.90
2023-05-14T12:56:42.988Z,19.95
2023-05-14T12:59:09.491Z,20.15
2023-05-14T13:01:38.967Z,20.36
2023-05-14T13:04:06.214Z,20.59
2023-05-14T13:06:35.216Z,20.62
2023-05-14T13:09:02.344Z,20.80
2023-05-14T13:11:30.288Z,20.43
2023-05-14T13:13:56.890Z,20.61
2023-05-14T13:16:23.327Z,20.87
2023-05-14T13:18:49.705Z,20.88
2023-05-14T13:21:16.243Z,20.99
2023-05-14T13:23:42.824Z,20.93
2023-05-14T13:26:09.684Z,20.95
2023-05-14T13:28:40.443Z,21.34
2023-05-14T13:31:42.946Z,21.10
2023-05-14T13:38:02.065Z,20.69
2023-05-14T13:40:35.997Z,20.68
2023-05-14T13:43:31.124Z,20.70
2023-05-14T13:46:52.587Z,20.81
2023-05-14T13:53:36.396Z,21.26
2023-05-14T13:59:18.381Z,21.45
2023-05-14T14:01:49.753Z,21.09
2023-05-14T14:04:28.388Z,20.98
2023-05-14T14:10:46.640Z,20.57
2023-05-14T14:13:13.887Z,20.20
2023-05-14T14:16:06.296Z,20.31
2023-05-14T14:21:34.336Z,20.99
2023-05-14T14:24:12.097Z,21.33
2023-05-14T14:26:38.477Z,21.72
2023-05-14T14:32:49.593Z,21.27
2023-05-14T14:35:20.905Z,21.44
2023-05-14T14:37:53.344Z,21.47
2023-05-14T14:40:19.909Z,21.27
2023-05-14T14:42:46.697Z,21.48
2023-05-14T14:45:20.051Z,21.60
2023-05-14T14:48:50.158Z,21.59
2023-05-14T14:52:12.990Z,21.82
2023-05-14T14:55:49.705Z,21.57
2023-05-14T15:01:47.681Z,21.48
2023-05-14T15:07:52.665Z,21.41
2023-05-14T15:24:16.991Z,21.57
2023-05-14T15:26:52.740Z,21.38
2023-05-14T15:30:38.512Z,21.34
2023-05-14T15:36:03.525Z,21.11
2023-05-14T15:39:09.465Z,21.11
2023-05-14T15:45:34.832Z,20.92
2023-05-14T15:48:25.477Z,20.81
2023-05-14T15:54:34.778Z,20.58
2023-05-14T15:57:20.241Z,20.50
2023-05-14T16:03:30.220Z,20.23
2023-05-14T16:06:24.888Z,20.25
2023-05-14T16:15:51.873Z,20.08
2023-05-14T16:18:18.275Z,20.00
2023-05-14T16:20:44.739Z,19.82
2023-05-14T16:23:38.842Z,19.58
2023-05-14T16:26:06.179Z,19.50
2023-05-14T16:28:35.731Z,19.55
2023-05-14T16:31:03.708Z,19.51
2023-05-14T16:33:30.409Z,19.38
2023-05-14T16:35:56.789Z,19.41
2023-05-14T16:38:23.377Z,19.18
2023-05-14T16:40:50.084Z,19.10
2023-05-14T16:43:33.049Z,18.91
2023-05-14T16:45:59.569Z,18.96
2023-05-14T16:48:26.984Z,18.95
2023-05-14T16:50:53.451Z,18.99
2023-05-14T16:53:19.818Z,18.92
2023-05-14T16:55:46.189Z,19.11
2023-05-14T16:58:15.839Z,19.28
2023-05-14T17:00:42.150Z,19.24
2023-05-14T17:03:08.585Z,19.32
2023-05-14T17:05:35.515Z,19.28
2023-05-14T17:08:04.618Z,19.68
2023-05-14T17:10:33.022Z,19.62
2023-05-14T17:13:00.248Z,19.63
2023-05-14T17:15:27.126Z,19.51
2023-05-14T17:17:55.204Z,19.40
2023-05-14T17:20:25.572Z,19.25
2023-05-14T17:22:55.732Z,19.51
2023-05-14T17:25:24.063Z,19.45
2023-05-14T17:27:50.814Z,19.35
2023-05-14T17:30:17.470Z,19.39
2023-05-14T17:32:44.534Z,19.42
2023-05-14T17:35:11.419Z,19.47
2023-05-14T17:37:37.938Z,19.85
2023-05-14T17:43:02.877Z,19.88
2023-05-14T17:45:36.450Z,19.81
2023-05-14T17:48:09.455Z,19.75
2023-05-14T17:50:36.162Z,19.73
2023-05-14T17:53:03.032Z,19.75
2023-05-14T17:55:29.513Z,19.78
2023-05-14T17:57:55.867Z,19.48
2023-05-14T18:00:22.431Z,19.57
2023-05-14T18:02:49.142Z,19.41
2023-05-14T18:05:15.646Z,19.19
2023-05-14T18:07:42.343Z,18.80
2023-05-14T18:10:08.797Z,18.72
2023-05-14T18:15:27.288Z,18.52
2023-05-14T18:17:54.086Z,18.39
2023-05-14T18:20:20.565Z,18.31
2023-05-14T18:22:46.946Z,18.24
2023-05-14T18:25:13.659Z,18.10
2023-05-14T18:27:44.352Z,18.05
2023-05-14T18:30:15.174Z,17.96
2023-05-14T18:32:43.745Z,17.77
2023-05-14T18:35:11.394Z,17.69
2023-05-14T18:37:37.755Z,17.63
2023-05-14T18:40:05.057Z,17.59
2023-05-14T18:42:31.628Z,17.52
2023-05-14T18:44:57.980Z,17.46
2023-05-14T18:47:24.443Z,17.63
2023-05-14T18:49:54.778Z,17.57
2023-05-14T18:52:22.699Z,17.51
2023-05-14T18:54:48.998Z,17.41
2023-05-14T18:57:15.388Z,17.33
2023-05-14T18:59:41.783Z,17.14
2023-05-14T19:02:08.073Z,17.21
2023-05-14T19:04:44.334Z,17.14
2023-05-14T19:07:17.350Z,16.95
2023-05-14T19:09:43.868Z,16.83
2023-05-14T19:12:14.782Z,16.71
2023-05-14T19:14:41.120Z,16.58
2023-05-14T19:17:07.474Z,16.51
2023-05-14T19:19:34.161Z,16.48
2023-05-14T19:22:00.517Z,16.49
2023-05-14T19:24:26.839Z,16.29
2023-05-14T19:26:53.283Z,16.25
2023-05-14T19:29:19.630Z,16.29
2023-05-14T19:31:47.286Z,16.19
2023-05-14T19:34:13.732Z,16.04
2023-05-14T19:36:40.187Z,16.04
2023-05-14T19:39:06.506Z,16.06
2023-05-14T19:41:32.782Z,15.83
2023-05-14T19:43:59.090Z,15.81
2023-05-14T19:46:26.131Z,15.77
2023-05-14T19:48:52.468Z,15.88
2023-05-14T19:51:18.865Z,15.72
2023-05-14T19:53:45.268Z,15.58
2023-05-14T19:56:11.677Z,15.58
2023-05-14T19:58:45.356Z,15.60
2023-05-14T20:01:11.993Z,15.70
2023-05-14T20:03:38.518Z,15.56
2023-05-14T20:06:05.023Z,15.45
2023-05-14T20:08:31.364Z,15.30
2023-05-14T20:10:57.757Z,15.26
2023-05-14T20:13:25.228Z,15.27
2023-05-14T20:15:51.941Z,15.29
2023-05-14T20:18:18.268Z,15.22
2023-05-14T20:20:44.533Z,15.22
2023-05-14T20:23:10.854Z,15.20
2023-05-14T20:25:37.175Z,15.23
2023-05-14T20:28:04.216Z,15.14
2023-05-14T20:30:31.995Z,15.11
2023-05-14T20:32:58.504Z,15.03
2023-05-14T20:35:25.207Z,14.93
2023-05-14T20:37:51.735Z,14.84
2023-05-14T20:40:18.154Z,14.81
2023-05-14T20:42:44.636Z,14.79
2023-05-14T20:45:11.311Z,14.73
2023-05-14T20:47:37.721Z,14.60
2023-05-14T20:50:04.665Z,14.49
2023-05-14T20:52:31.120Z,14.51
2023-05-14T20:55:00.029Z,14.40
2023-05-14T20:57:28.181Z,14.32
2023-05-14T20:59:54.572Z,14.19
2023-05-14T21:02:21.088Z,14.08
2023-05-14T21:04:47.790Z,14.11
2023-05-14T21:07:14.130Z,14.22
2023-05-14T21:09:40.505Z,14.17
2023-05-14T21:12:07.222Z,14.25
2023-05-14T21:14:33.531Z,14.20
2023-05-14T21:16:59.899Z,14.22
2023-05-14T21:19:26.199Z,14.15
2023-05-14T21:21:52.569Z,14.03
2023-05-14T21:24:19.100Z,13.85
2023-05-14T21:26:45.676Z,13.68
2023-05-14T21:29:12.117Z,13.54
2023-05-14T21:31:38.545Z,13.53
2023-05-14T21:34:04.959Z,13.58
2023-05-14T21:36:31.524Z,13.67
2023-05-14T21:38:57.863Z,13.72
2023-05-14T21:41:24.213Z,13.78
2023-05-14T21:43:50.537Z,13.97
2023-05-14T21:46:16.912Z,13.92
2023-05-14T21:48:43.397Z,13.80
2023-05-14T21:51:09.996Z,13.70
2023-05-14T21:53:36.361Z,13.78
2023-05-14T21:56:02.736Z,13.70
2023-05-14T21:58:29.080Z,13.74
2023-05-14T22:00:55.432Z,13.77
2023-05-14T22:03:21.865Z,13.70
2023-05-14T22:05:49.119Z,13.58
2023-05-14T22:08:17.393Z,13.54
2023-05-14T22:10:44.077Z,13.51
2023-05-14T22:13:10.887Z,13.57
2023-05-14T22:15:37.783Z,13.36
2023-05-14T22:18:04.408Z,13.40
2023-05-14T22:20:30.784Z,13.35
2023-05-14T22:22:57.169Z,13.24
2023-05-14T22:25:23.823Z,13.07
2023-05-14T22:27:50.300Z,12.98
2023-05-14T22:30:16.578Z,13.12
2023-05-14T22:32:43.075Z,13.07
2023-05-14T22:35:09.543Z,13.03
2023-05-14T22:37:35.988Z,12.95
2023-05-14T22:40:04.950Z,12.85
2023-05-14T22:42:31.222Z,12.76
2023-05-14T22:44:57.532Z,12.84
2023-05-14T22:47:25.014Z,12.61
2023-05-14T22:49:51.363Z,12.70
2023-05-14T22:52:18.774Z,12.56
2023-05-14T22:54:46.554Z,12.35
2023-05-14T22:57:12.850Z,12.20
2023-05-14T22:59:39.466Z,12.20
2023-05-14T23:02:06.540Z,12.12
2023-05-14T23:04:32.956Z,12.11
2023-05-14T23:06:59.332Z,12.18
2023-05-14T23:09:25.703Z,12.16
2023-05-14T23:11:51.998Z,12.13
2023-05-14T23:14:18.338Z,12.01
2023-05-14T23:16:44.919Z,12.05
2023-05-14T23:19:11.420Z,11.99
2023-05-14T23:21:37.933Z,12.11
2023-05-14T23:24:04.446Z,11.76
2023-05-14T23:26:30.815Z,11.52
2023-05-14T23:28:57.088Z,11.33
2023-05-14T23:31:23.502Z,11.56
2023-05-14T23:33:49.860Z,11.62
2023-05-14T23:36:16.277Z,11.65
2023-05-14T23:38:43.319Z,11.54
2023-05-14T23:41:09.619Z,11.41
2023-05-14T23:43:35.936Z,11.22
2023-05-14T23:46:02.390Z,11.14
2023-05-14T23:48:28.831Z,11.04
2023-05-14T23:50:55.222Z,10.98
2023-05-14T23:53:21.525Z,10.81
2023-05-14T23:55:47.885Z,10.72
2023-05-14T23:58:20.084Z,10.90
